Time;durP1;ratioP1;P1;durP2;ratioP2;P2;SDS_P1;SDS_P2;PMS_P1;PMS_P2;Temp;Humidity;BMP_temperature;BMP_pressure;BME280_temperature;BME280_humidity;BME280_pressure;Samples;Min_cycle;Max_cycle;Signal;HPM_P1;HPM_P2
2021/03/31 00:00:22;;;;;;;;;;;7.80;90.20;;;;;;5071361;28;19917;-73
2021/03/31 00:02:49;;;;;;;;;;;7.90;90.20;;;;;;5070788;28;20370;-74
2021/03/31 00:05:15;;;;;;;;;;;7.90;90.20;;;;;;5064514;28;19934;-73
2021/03/31 00:07:40;;;;;;;;;;;7.80;90.10;;;;;;5069389;28;19962;-73
2021/03/31 00:10:12;;;;;;;;;;;7.80;90.00;;;;;;5071066;28;19912;-73
2021/03/31 00:12:37;;;;;;;;;;;7.80;90.20;;;;;;5070842;28;19947;-73
2021/03/31 00:15:03;;;;;;;;;;;7.80;90.20;;;;;;5071076;28;19912;-73
2021/03/31 00:17:28;;;;;;;;;;;7.80;90.30;;;;;;5069930;28;20382;-73
2021/03/31 00:19:54;;;;;;;;;;;7.80;90.40;;;;;;5070847;28;19912;-73
2021/03/31 00:22:19;;;;;;;;;;;7.80;90.40;;;;;;5070949;28;19992;-74
2021/03/31 00:24:45;;;;;;;;;;;7.70;90.50;;;;;;5069303;28;20387;-73
2021/03/31 00:27:10;;;;;;;;;;;7.60;90.80;;;;;;5068990;28;20007;-73
2021/03/31 00:29:36;;;;;;;;;;;7.50;90.70;;;;;;5069425;28;19916;-73
2021/03/31 00:32:02;;;;;;;;;;;7.40;91.00;;;;;;5070943;28;20330;-73
2021/03/31 00:34:27;;;;;;;;;;;7.30;91.10;;;;;;5070918;28;19963;-73
2021/03/31 00:36:53;;;;;;;;;;;7.30;91.30;;;;;;5062727;28;20258;-73
2021/03/31 00:39:18;;;;;;;;;;;7.30;91.50;;;;;;5070305;28;19915;-73
2021/03/31 00:41:44;;;;;;;;;;;7.30;91.40;;;;;;5069311;28;20010;-73
2021/03/31 00:44:09;;;;;;;;;;;7.30;91.40;;;;;;5069494;28;19908;-73
2021/03/31 00:46:35;;;;;;;;;;;7.30;91.50;;;;;;5069599;28;19962;-73
2021/03/31 00:49:00;;;;;;;;;;;7.20;91.60;;;;;;5070623;28;20324;-73
2021/03/31 00:51:26;;;;;;;;;;;7.20;91.60;;;;;;5070652;28;19995;-73
2021/03/31 00:53:51;;;;;;;;;;;7.10;91.90;;;;;;5070388;28;20341;-73
2021/03/31 00:56:16;;;;;;;;;;;7.10;92.10;;;;;;5069579;28;19939;-73
2021/03/31 00:58:42;;;;;;;;;;;7.00;92.40;;;;;;5070529;28;19909;-73
2021/03/31 01:01:09;;;;;;;;;;;7.00;92.60;;;;;;5070338;28;20405;-73
2021/03/31 01:03:35;;;;;;;;;;;7.00;92.60;;;;;;5070497;28;19908;-73
2021/03/31 01:06:01;;;;;;;;;;;6.90;92.80;;;;;;5062897;28;20434;-73
2021/03/31 01:08:26;;;;;;;;;;;6.90;93.10;;;;;;5070029;28;19913;-73
2021/03/31 01:10:53;;;;;;;;;;;6.80;93.20;;;;;;5070569;28;20045;-73
2021/03/31 01:13:22;;;;;;;;;;;6.80;93.40;;;;;;5070461;28;19978;-73
2021/03/31 01:15:47;;;;;;;;;;;6.70;93.50;;;;;;5069385;28;19909;-73
2021/03/31 01:18:31;;;;;;;;;;;6.60;93.80;;;;;;5072829;28;19908;-73
2021/03/31 01:20:57;;;;;;;;;;;6.60;94.10;;;;;;5074115;28;19965;-73
2021/03/31 01:23:22;;;;;;;;;;;6.60;94.20;;;;;;5073685;28;19912;-73
2021/03/31 01:25:51;;;;;;;;;;;6.60;94.30;;;;;;5072975;28;19908;-72
2021/03/31 01:28:27;;;;;;;;;;;6.50;94.30;;;;;;5073898;28;19909;-73
2021/03/31 01:30:56;;;;;;;;;;;6.60;94.40;;;;;;5073897;28;19986;-73
2021/03/31 01:33:30;;;;;;;;;;;6.60;94.30;;;;;;5072472;28;19923;-73
2021/03/31 01:35:56;;;;;;;;;;;6.60;94.40;;;;;;5066330;28;20009;-73
2021/03/31 01:38:23;;;;;;;;;;;6.60;94.30;;;;;;5073437;28;20396;-73
2021/03/31 01:40:50;;;;;;;;;;;6.70;94.40;;;;;;5067955;28;19999;-73
2021/03/31 01:43:17;;;;;;;;;;;6.70;94.30;;;;;;5073731;28;19908;-73
2021/03/31 01:45:46;;;;;;;;;;;6.70;94.30;;;;;;5072513;28;19912;-73
2021/03/31 01:48:14;;;;;;;;;;;6.70;94.50;;;;;;5073674;28;19913;-73
2021/03/31 01:50:40;;;;;;;;;;;6.60;94.60;;;;;;5073731;28;20047;-73
2021/03/31 01:53:06;;;;;;;;;;;6.70;94.90;;;;;;5073288;28;19909;-73
2021/03/31 01:55:32;;;;;;;;;;;6.60;94.70;;;;;;5073264;28;19912;-72
2021/03/31 01:57:58;;;;;;;;;;;6.60;94.70;;;;;;5072663;28;19992;-73
2021/03/31 02:00:25;;;;;;;;;;;6.50;94.80;;;;;;5073228;28;19912;-73
2021/03/31 02:02:52;;;;;;;;;;;6.40;95.10;;;;;;5073350;28;19963;-73
2021/03/31 02:05:18;;;;;;;;;;;6.30;95.30;;;;;;5067455;28;19908;-73
2021/03/31 02:07:44;;;;;;;;;;;6.20;95.40;;;;;;5092154;28;19930;-73
2021/03/31 02:10:11;;;;;;;;;;;6.20;95.60;;;;;;5093422;28;19964;-73
2021/03/31 02:12:38;;;;;;;;;;;6.20;95.70;;;;;;5093337;28;19990;-73
2021/03/31 02:15:04;;;;;;;;;;;6.10;95.90;;;;;;5093406;28;19916;-73
2021/03/31 02:17:30;;;;;;;;;;;6.10;96.00;;;;;;5092356;28;19915;-73
2021/03/31 02:19:56;;;;;;;;;;;6.10;96.10;;;;;;5093157;28;19951;-73
2021/03/31 02:22:25;;;;;;;;;;;6.10;96.20;;;;;;5093354;28;19934;-73
2021/03/31 02:24:51;;;;;;;;;;;6.20;96.10;;;;;;5093322;28;20001;-73
2021/03/31 02:27:16;;;;;;;;;;;6.10;96.10;;;;;;5093383;28;19908;-73
2021/03/31 02:29:46;;;;;;;;;;;6.10;96.30;;;;;;5092842;28;20384;-73
2021/03/31 02:32:12;;;;;;;;;;;6.10;96.40;;;;;;5093032;28;20005;-73
2021/03/31 02:34:38;;;;;;;;;;;6.10;96.50;;;;;;5090392;28;19908;-73
2021/03/31 02:37:04;;;;;;;;;;;6.00;96.60;;;;;;5066739;28;19916;-73
2021/03/31 02:39:31;;;;;;;;;;;6.00;96.70;;;;;;5072372;28;19931;-73
2021/03/31 02:41:57;;;;;;;;;;;5.90;96.80;;;;;;5073551;28;19912;-73
2021/03/31 02:44:24;;;;;;;;;;;5.80;97.20;;;;;;5072655;28;19908;-73
2021/03/31 02:46:52;;;;;;;;;;;5.70;97.30;;;;;;5071826;28;19915;-73
2021/03/31 02:49:18;;;;;;;;;;;5.70;97.50;;;;;;5072349;28;19908;-73
2021/03/31 02:51:45;;;;;;;;;;;5.70;97.60;;;;;;5072752;28;19909;-73
2021/03/31 02:54:10;;;;;;;;;;;5.70;97.70;;;;;;5072514;28;19909;-73
2021/03/31 02:56:38;;;;;;;;;;;5.70;97.70;;;;;;5071579;28;20289;-73
2021/03/31 02:59:04;;;;;;;;;;;5.70;97.90;;;;;;5072547;28;19912;-73
2021/03/31 03:01:30;;;;;;;;;;;5.60;98.10;;;;;;5072442;28;19965;-73
2021/03/31 03:03:55;;;;;;;;;;;5.60;98.30;;;;;;5072586;28;19908;-73
2021/03/31 03:06:22;;;;;;;;;;;5.60;98.30;;;;;;5064830;28;20327;-73
2021/03/31 03:08:48;;;;;;;;;;;5.60;98.20;;;;;;5072104;28;19908;-73
2021/03/31 03:11:13;;;;;;;;;;;5.60;98.20;;;;;;5072049;28;19967;-73
2021/03/31 03:13:40;;;;;;;;;;;5.60;98.40;;;;;;5072381;28;19909;-73
2021/03/31 03:16:06;;;;;;;;;;;5.60;98.70;;;;;;5071225;28;19951;-73
2021/03/31 03:18:33;;;;;;;;;;;5.60;98.60;;;;;;5072247;28;20003;-73
2021/03/31 03:20:59;;;;;;;;;;;5.60;98.60;;;;;;5072273;28;19967;-73
2021/03/31 03:23:24;;;;;;;;;;;5.60;99.00;;;;;;5071947;28;20003;-73
2021/03/31 03:25:50;;;;;;;;;;;5.50;99.20;;;;;;5071052;28;19959;-73
2021/03/31 03:28:21;;;;;;;;;;;5.50;99.20;;;;;;5072037;28;19908;-73
2021/03/31 03:30:47;;;;;;;;;;;5.50;99.20;;;;;;5072299;28;19909;-73
2021/03/31 03:33:13;;;;;;;;;;;5.50;99.20;;;;;;5071972;28;19915;-73
2021/03/31 03:35:39;;;;;;;;;;;5.60;99.20;;;;;;5064665;28;19917;-73
2021/03/31 03:38:04;;;;;;;;;;;5.60;99.20;;;;;;5071229;28;20369;-73
2021/03/31 03:40:30;;;;;;;;;;;5.60;99.10;;;;;;5071204;28;19961;-73
2021/03/31 03:42:55;;;;;;;;;;;5.70;99.20;;;;;;5070368;28;20277;-73
2021/03/31 03:45:22;;;;;;;;;;;5.70;99.20;;;;;;5071672;28;19908;-73
2021/03/31 03:47:48;;;;;;;;;;;5.70;99.20;;;;;;5069325;28;19916;-73
2021/03/31 03:50:14;;;;;;;;;;;5.70;99.20;;;;;;5071717;28;19909;-73
2021/03/31 03:52:42;;;;;;;;;;;5.70;98.90;;;;;;5071321;28;19995;-73
2021/03/31 03:55:07;;;;;;;;;;;5.70;98.80;;;;;;5071226;28;20391;-73
2021/03/31 03:57:33;;;;;;;;;;;5.70;98.80;;;;;;5070578;28;19936;-73
2021/03/31 03:59:59;;;;;;;;;;;5.70;98.80;;;;;;5071502;28;20388;-73
2021/03/31 04:02:24;;;;;;;;;;;5.60;98.80;;;;;;5071446;28;19997;-73
2021/03/31 04:04:50;;;;;;;;;;;5.50;99.00;;;;;;5068288;28;19913;-73
2021/03/31 04:07:15;;;;;;;;;;;5.50;99.00;;;;;;5066996;28;19982;-73
2021/03/31 04:09:42;;;;;;;;;;;5.40;99.30;;;;;;5091300;28;20006;-73
2021/03/31 04:12:09;;;;;;;;;;;5.40;99.70;;;;;;5091397;28;19951;-73
2021/03/31 04:14:36;;;;;;;;;;;5.30;99.90;;;;;;5090204;28;19967;-73
2021/03/31 04:17:03;;;;;;;;;;;5.20;99.90;;;;;;5090608;28;19923;-73
2021/03/31 04:19:28;;;;;;;;;;;5.30;99.90;;;;;;5091395;28;19944;-73
2021/03/31 04:21:54;;;;;;;;;;;5.20;99.90;;;;;;5091085;28;20380;-73
2021/03/31 04:24:19;;;;;;;;;;;5.20;99.90;;;;;;5091146;28;19912;-73
2021/03/31 04:26:46;;;;;;;;;;;5.10;99.90;;;;;;5090264;28;19956;-73
2021/03/31 04:29:12;;;;;;;;;;;5.10;99.90;;;;;;5091286;28;19990;-73
2021/03/31 04:31:38;;;;;;;;;;;5.10;99.90;;;;;;5091337;28;19914;-73
2021/03/31 04:34:04;;;;;;;;;;;5.10;99.90;;;;;;5091292;28;19912;-73
2021/03/31 04:36:30;;;;;;;;;;;5.10;99.90;;;;;;5066422;28;20015;-73
2021/03/31 04:38:56;;;;;;;;;;;5.10;99.90;;;;;;5070458;28;20348;-73
2021/03/31 04:41:22;;;;;;;;;;;5.10;99.90;;;;;;5070994;28;19960;-73
2021/03/31 04:43:47;;;;;;;;;;;5.10;99.90;;;;;;5069935;28;20378;-73
2021/03/31 04:46:13;;;;;;;;;;;5.00;99.90;;;;;;5069934;28;19908;-73
2021/03/31 04:48:38;;;;;;;;;;;5.00;99.90;;;;;;5070989;28;20327;-73
2021/03/31 04:51:04;;;;;;;;;;;5.00;99.90;;;;;;5070708;28;19974;-73
2021/03/31 04:53:30;;;;;;;;;;;5.00;99.90;;;;;;5073576;28;19916;-73
2021/03/31 04:55:56;;;;;;;;;;;4.90;99.90;;;;;;5073834;28;19942;-73
2021/03/31 04:58:21;;;;;;;;;;;4.90;99.90;;;;;;5074607;28;19999;-73
2021/03/31 05:00:47;;;;;;;;;;;4.90;99.90;;;;;;5074868;28;19912;-73
2021/03/31 05:03:12;;;;;;;;;;;4.90;99.90;;;;;;5074478;28;19909;-73
2021/03/31 05:05:38;;;;;;;;;;;4.90;99.90;;;;;;5067643;28;19982;-73
2021/03/31 05:08:04;;;;;;;;;;;4.90;99.90;;;;;;5074311;28;20373;-73
2021/03/31 05:10:29;;;;;;;;;;;4.80;99.90;;;;;;5074467;28;20011;-72
2021/03/31 05:12:54;;;;;;;;;;;4.80;99.90;;;;;;5074532;28;19955;-73
2021/03/31 05:15:20;;;;;;;;;;;4.80;99.90;;;;;;5074394;28;19927;-73
2021/03/31 05:17:46;;;;;;;;;;;4.80;99.90;;;;;;5072108;28;19962;-73
2021/03/31 05:20:12;;;;;;;;;;;4.90;99.90;;;;;;5074230;28;19962;-73
2021/03/31 05:22:38;;;;;;;;;;;4.90;99.90;;;;;;5074219;28;20323;-73
2021/03/31 05:25:04;;;;;;;;;;;5.00;99.90;;;;;;5073977;28;19940;-73
2021/03/31 05:27:29;;;;;;;;;;;5.00;99.90;;;;;;5073149;28;20436;-73
2021/03/31 05:29:55;;;;;;;;;;;5.00;99.90;;;;;;5074121;28;19951;-73
2021/03/31 05:32:20;;;;;;;;;;;5.00;99.90;;;;;;5074209;28;20069;-73
2021/03/31 05:34:46;;;;;;;;;;;5.00;99.90;;;;;;5071564;28;19909;-73
2021/03/31 05:37:12;;;;;;;;;;;5.10;99.90;;;;;;5068804;28;20144;-73
2021/03/31 05:39:37;;;;;;;;;;;5.10;99.90;;;;;;5073428;28;19912;-73
2021/03/31 05:42:03;;;;;;;;;;;5.10;99.90;;;;;;5073898;28;19947;-73
2021/03/31 05:44:31;;;;;;;;;;;5.10;99.90;;;;;;5074017;28;19908;-73
2021/03/31 05:46:57;;;;;;;;;;;5.10;99.90;;;;;;5063575;28;19912;-73
2021/03/31 05:49:24;;;;;;;;;;;5.20;99.90;;;;;;5055416;28;19960;-73
2021/03/31 05:51:49;;;;;;;;;;;5.20;99.90;;;;;;5073517;28;19919;-73
2021/03/31 05:54:15;;;;;;;;;;;5.20;99.90;;;;;;5073386;28;19908;-72
2021/03/31 05:56:41;;;;;;;;;;;5.20;99.90;;;;;;5066577;28;19924;-73
2021/03/31 05:59:07;;;;;;;;;;;5.30;99.90;;;;;;5072889;28;20290;-73
2021/03/31 06:01:33;;;;;;;;;;;5.30;99.90;;;;;;5072489;28;19920;-73
2021/03/31 06:03:59;;;;;;;;;;;5.40;99.90;;;;;;5072277;28;20274;-73
2021/03/31 06:06:24;;;;;;;;;;;5.50;99.90;;;;;;5056449;28;19960;-73
2021/03/31 06:08:50;;;;;;;;;;;5.60;99.90;;;;;;5053066;28;19913;-73
2021/03/31 06:11:18;;;;;;;;;;;5.60;99.90;;;;;;5053378;28;20281;-73
2021/03/31 06:13:50;;;;;;;;;;;5.70;99.90;;;;;;5052060;28;20297;-73
2021/03/31 06:16:26;;;;;;;;;;;5.80;99.90;;;;;;5068116;28;19919;-73
2021/03/31 06:18:51;;;;;;;;;;;5.90;99.90;;;;;;5073269;28;20333;-73
2021/03/31 06:21:17;;;;;;;;;;;6.00;99.90;;;;;;5072708;28;19917;-73
2021/03/31 06:26:27;;;;;;;;;;;6.10;99.90;;;;;;5071846;28;20365;-73
2021/03/31 06:28:54;;;;;;;;;;;6.20;99.90;;;;;;5073022;28;19916;-73
2021/03/31 06:31:19;;;;;;;;;;;6.30;99.90;;;;;;5067077;28;19920;-73
2021/03/31 06:33:45;;;;;;;;;;;6.40;99.90;;;;;;5072920;28;19908;-73
2021/03/31 06:36:12;;;;;;;;;;;6.40;99.90;;;;;;5065090;28;19995;-73
2021/03/31 06:38:45;;;;;;;;;;;6.50;99.90;;;;;;5072629;28;19908;-73
2021/03/31 06:41:29;;;;;;;;;;;6.70;99.90;;;;;;5072905;28;19912;-73
2021/03/31 06:44:12;;;;;;;;;;;6.70;99.90;;;;;;5064961;28;19916;-73
2021/03/31 06:46:47;;;;;;;;;;;6.90;99.90;;;;;;5067566;28;19908;-73
2021/03/31 06:49:13;;;;;;;;;;;7.00;99.90;;;;;;5072599;28;19943;-73
2021/03/31 06:51:39;;;;;;;;;;;7.10;99.90;;;;;;5072120;28;20325;-73
2021/03/31 06:54:11;;;;;;;;;;;7.30;99.90;;;;;;5071544;28;20514;-73
2021/03/31 06:56:37;;;;;;;;;;;7.40;99.90;;;;;;5069201;28;20471;-73
2021/03/31 06:59:03;;;;;;;;;;;7.60;99.90;;;;;;5072259;28;20014;-73
2021/03/31 07:01:32;;;;;;;;;;;7.70;99.90;;;;;;5069494;28;20007;-73
2021/03/31 07:04:00;;;;;;;;;;;7.90;99.90;;;;;;5066280;28;19999;-73
2021/03/31 07:06:26;;;;;;;;;;;8.10;99.90;;;;;;5059165;28;19916;-73
2021/03/31 07:08:52;;;;;;;;;;;8.30;99.90;;;;;;5068805;28;20361;-73
2021/03/31 07:11:37;;;;;;;;;;;8.50;99.90;;;;;;5060008;28;19995;-73
2021/03/31 07:14:03;;;;;;;;;;;8.70;99.90;;;;;;5068764;28;19916;-73
2021/03/31 07:16:30;;;;;;;;;;;9.00;99.90;;;;;;5057014;28;19912;-73
2021/03/31 07:18:56;;;;;;;;;;;9.20;99.90;;;;;;5051725;28;20315;-73
2021/03/31 07:21:22;;;;;;;;;;;9.40;99.90;;;;;;5051132;28;19965;-73
2021/03/31 07:23:48;;;;;;;;;;;9.60;99.90;;;;;;5051733;28;19909;-73
2021/03/31 07:26:14;;;;;;;;;;;9.80;99.90;;;;;;5066265;28;20293;-73
2021/03/31 07:28:40;;;;;;;;;;;10.00;99.90;;;;;;5059537;28;19909;-73
2021/03/31 07:31:08;;;;;;;;;;;10.20;99.90;;;;;;5062517;28;19930;-73
2021/03/31 07:33:36;;;;;;;;;;;10.40;99.90;;;;;;5076557;28;19916;-73
2021/03/31 07:36:02;;;;;;;;;;;10.60;99.40;;;;;;5062883;28;20405;-74
2021/03/31 07:38:28;;;;;;;;;;;10.70;98.90;;;;;;5063751;28;20073;-73
2021/03/31 07:40:56;;;;;;;;;;;11.00;98.40;;;;;;5068874;28;19963;-73
2021/03/31 07:43:30;;;;;;;;;;;11.40;98.00;;;;;;5066371;28;19909;-74
2021/03/31 07:45:59;;;;;;;;;;;12.10;97.40;;;;;;5061112;28;19915;-74
2021/03/31 07:48:25;;;;;;;;;;;12.90;95.70;;;;;;5064044;28;19916;-74
2021/03/31 07:50:51;;;;;;;;;;;13.80;94.70;;;;;;5060404;28;20356;-75
2021/03/31 07:53:16;;;;;;;;;;;14.60;92.70;;;;;;5066693;28;19909;-74
2021/03/31 07:55:43;;;;;;;;;;;15.10;91.80;;;;;;5050551;28;19937;-74
2021/03/31 07:58:30;;;;;;;;;;;15.90;90.30;;;;;;5062631;28;19916;-74
2021/03/31 08:00:58;;;;;;;;;;;16.50;87.90;;;;;;5067027;28;20495;-75
2021/03/31 08:03:28;;;;;;;;;;;17.20;86.60;;;;;;5070488;28;20013;-75
2021/03/31 08:06:09;;;;;;;;;;;17.90;84.10;;;;;;5066369;28;19908;-75
2021/03/31 08:08:55;;;;;;;;;;;18.60;82.80;;;;;;5060988;28;19923;-75
2021/03/31 08:11:36;;;;;;;;;;;19.40;78.00;;;;;;5068556;28;19915;-75
2021/03/31 08:14:02;;;;;;;;;;;20.10;75.30;;;;;;5059568;28;19912;-75
2021/03/31 08:16:30;;;;;;;;;;;20.70;73.10;;;;;;5072329;28;19915;-75
2021/03/31 08:18:56;;;;;;;;;;;21.40;69.80;;;;;;5066312;28;20398;-76
2021/03/31 08:21:26;;;;;;;;;;;21.90;67.20;;;;;;5065239;28;20057;-75
2021/03/31 08:23:52;;;;;;;;;;;22.30;64.40;;;;;;5062918;28;20388;-75
2021/03/31 08:26:34;;;;;;;;;;;22.70;64.40;;;;;;5064751;28;19908;-76
2021/03/31 08:29:01;;;;;;;;;;;23.30;62.80;;;;;;5053819;28;20386;-75
2021/03/31 08:31:27;;;;;;;;;;;23.50;63.50;;;;;;5059877;28;19916;-76
2021/03/31 08:33:53;;;;;;;;;;;23.80;62.10;;;;;;5075014;28;19935;-76
2021/03/31 08:36:18;;;;;;;;;;;24.20;62.20;;;;;;5062784;28;20390;-76
2021/03/31 08:38:54;;;;;;;;;;;24.50;60.00;;;;;;5068254;28;19944;-76
2021/03/31 08:41:21;;;;;;;;;;;24.90;58.40;;;;;;5063558;28;19912;-76
2021/03/31 08:43:48;;;;;;;;;;;25.20;53.40;;;;;;5061254;28;19908;-76
2021/03/31 08:46:26;;;;;;;;;;;25.20;51.50;;;;;;5057988;28;19938;-76
2021/03/31 08:48:51;;;;;;;;;;;25.50;50.90;;;;;;5063208;28;19912;-76
2021/03/31 08:51:18;;;;;;;;;;;25.50;49.50;;;;;;5068451;28;20002;-76
2021/03/31 08:53:43;;;;;;;;;;;25.60;52.10;;;;;;5066295;28;19915;-76
2021/03/31 08:56:16;;;;;;;;;;;25.80;52.30;;;;;;5063092;28;19913;-76
2021/03/31 08:58:41;;;;;;;;;;;26.10;49.60;;;;;;5074860;28;19930;-76
2021/03/31 09:01:07;;;;;;;;;;;26.50;47.10;;;;;;5085983;28;19939;-76
2021/03/31 09:03:32;;;;;;;;;;;26.80;47.60;;;;;;5068643;28;20392;-76
2021/03/31 09:06:01;;;;;;;;;;;26.90;48.50;;;;;;5062634;28;19916;-76
2021/03/31 09:08:28;;;;;;;;;;;27.10;47.60;;;;;;5064468;28;19916;-76
2021/03/31 09:10:55;;;;;;;;;;;27.20;44.10;;;;;;5059016;28;19912;-76
2021/03/31 09:13:24;;;;;;;;;;;27.30;47.00;;;;;;5053832;28;20007;-77
2021/03/31 09:15:55;;;;;;;;;;;27.50;44.30;;;;;;5063664;28;20281;-76
2021/03/31 09:18:20;;;;;;;;;;;27.60;45.00;;;;;;5056840;28;20006;-77
2021/03/31 09:20:46;;;;;;;;;;;27.80;45.80;;;;;;5054139;28;20429;-76
2021/03/31 09:23:29;;;;;;;;;;;28.00;45.30;;;;;;5053585;28;19913;-76
2021/03/31 09:25:56;;;;;;;;;;;28.20;44.80;;;;;;5064296;28;20049;-76
2021/03/31 09:28:21;;;;;;;;;;;28.50;44.50;;;;;;5063149;28;19908;-76
2021/03/31 09:30:49;;;;;;;;;;;28.90;43.70;;;;;;5060642;28;20332;-77
2021/03/31 09:33:25;;;;;;;;;;;29.20;43.80;;;;;;5063907;28;20050;-77
2021/03/31 09:35:50;;;;;;;;;;;29.50;39.80;;;;;;5068746;28;19920;-77
2021/03/31 09:38:23;;;;;;;;;;;29.50;38.50;;;;;;5064183;28;19908;-77
2021/03/31 09:40:56;;;;;;;;;;;29.70;42.70;;;;;;5065590;28;19982;-77
2021/03/31 09:43:22;;;;;;;;;;;29.90;42.20;;;;;;5063252;28;19973;-77
2021/03/31 09:45:52;;;;;;;;;;;30.30;40.50;;;;;;5062656;28;20381;-77
2021/03/31 09:48:18;;;;;;;;;;;30.60;41.90;;;;;;5060749;28;19909;-77
2021/03/31 09:50:44;;;;;;;;;;;30.90;39.70;;;;;;5065015;28;19961;-77
2021/03/31 09:53:09;;;;;;;;;;;31.00;39.60;;;;;;5055208;28;19909;-77
2021/03/31 09:55:36;;;;;;;;;;;31.20;36.20;;;;;;5061346;28;19963;-77
2021/03/31 09:58:02;;;;;;;;;;;31.00;37.80;;;;;;5067011;28;19912;-77
2021/03/31 10:00:28;;;;;;;;;;;31.10;37.30;;;;;;5065553;28;19919;-77
2021/03/31 10:02:55;;;;;;;;;;;31.20;37.30;;;;;;5057110;28;20487;-77
2021/03/31 10:05:22;;;;;;;;;;;31.30;37.70;;;;;;5067551;28;20296;-77
2021/03/31 10:08:21;;;;;;;;;;;31.40;38.20;;;;;;5071530;28;19909;-77
2021/03/31 10:10:54;;;;;;;;;;;31.60;38.70;;;;;;5060565;28;20378;-77
2021/03/31 10:13:20;;;;;;;;;;;31.90;37.60;;;;;;5052222;28;19908;-77
2021/03/31 10:15:55;;;;;;;;;;;32.00;35.00;;;;;;5062981;28;20047;-77
2021/03/31 10:18:21;;;;;;;;;;;32.10;36.90;;;;;;5064618;28;19908;-77
2021/03/31 10:20:47;;;;;;;;;;;32.30;32.10;;;;;;5064356;28;19912;-77
2021/03/31 10:23:25;;;;;;;;;;;32.30;32.90;;;;;;5057093;28;19912;-77
2021/03/31 10:25:51;;;;;;;;;;;32.20;34.70;;;;;;5061542;28;19916;-77
2021/03/31 10:28:35;;;;;;;;;;;32.10;34.30;;;;;;5065007;28;20388;-77
2021/03/31 10:31:19;;;;;;;;;;;32.10;34.00;;;;;;5068382;28;20006;-77
2021/03/31 10:33:45;;;;;;;;;;;32.10;34.00;;;;;;5064837;28;19922;-77
2021/03/31 10:36:11;;;;;;;;;;;32.00;32.90;;;;;;5061179;28;19930;-77
2021/03/31 10:39:10;;;;;;;;;;;32.00;33.70;;;;;;5061286;28;19938;-77
2021/03/31 10:47:06;;;;;;;;;;;31.90;31.80;;;;;;5070481;28;19908;-77
2021/03/31 10:52:27;;;;;;;;;;;31.30;31.10;;;;;;5086341;28;20372;-77
2021/03/31 10:54:55;;;;;;;;;;;31.30;31.60;;;;;;5071725;28;19926;-77
2021/03/31 10:57:20;;;;;;;;;;;31.40;32.30;;;;;;5091527;28;19943;-77
2021/03/31 10:59:46;;;;;;;;;;;31.50;32.00;;;;;;5092089;28;20357;-77
2021/03/31 11:02:11;;;;;;;;;;;31.60;31.30;;;;;;5092026;28;19923;-77
2021/03/31 11:04:37;;;;;;;;;;;31.80;30.00;;;;;;5089776;28;19908;-77
2021/03/31 11:07:03;;;;;;;;;;;31.60;28.50;;;;;;5066212;28;19913;-77
2021/03/31 11:09:29;;;;;;;;;;;31.30;28.30;;;;;;5070365;28;19909;-76
2021/03/31 11:11:55;;;;;;;;;;;31.20;31.30;;;;;;5072026;28;19917;-76
2021/03/31 11:14:20;;;;;;;;;;;31.30;29.10;;;;;;5072343;28;19996;-77
2021/03/31 11:16:52;;;;;;;;;;;31.60;31.10;;;;;;5070549;28;19912;-76
2021/03/31 11:27:10;;;;;;;;;;;32.50;30.10;;;;;;5070469;28;20222;-76
2021/03/31 11:29:36;;;;;;;;;;;32.60;29.90;;;;;;5068876;28;19995;-77
2021/03/31 11:32:01;;;;;;;;;;;32.80;30.50;;;;;;5070896;28;20411;-77
2021/03/31 11:34:27;;;;;;;;;;;33.10;29.30;;;;;;5071443;28;19908;-77
2021/03/31 11:36:53;;;;;;;;;;;33.20;29.30;;;;;;5063445;28;19927;-77
2021/03/31 11:39:19;;;;;;;;;;;33.30;28.50;;;;;;5070987;28;19954;-77
2021/03/31 11:41:45;;;;;;;;;;;33.00;29.30;;;;;;5070639;28;20007;-77
2021/03/31 11:44:10;;;;;;;;;;;32.70;28.90;;;;;;5070207;28;19909;-77
2021/03/31 11:46:36;;;;;;;;;;;32.30;30.20;;;;;;5069330;28;19908;-77
2021/03/31 11:49:01;;;;;;;;;;;32.00;29.80;;;;;;5070006;28;19915;-77
2021/03/31 11:51:27;;;;;;;;;;;31.60;30.30;;;;;;5070455;28;20265;-76
2021/03/31 11:53:52;;;;;;;;;;;31.10;29.50;;;;;;5070088;28;19958;-76
2021/03/31 11:56:18;;;;;;;;;;;30.80;30.80;;;;;;5060925;28;20023;-77
2021/03/31 11:58:43;;;;;;;;;;;30.90;31.60;;;;;;5071065;28;20235;-77
2021/03/31 12:01:09;;;;;;;;;;;30.90;30.10;;;;;;5063855;28;19952;-76
2021/03/31 12:03:34;;;;;;;;;;;30.60;29.70;;;;;;5068955;28;19909;-76
2021/03/31 12:06:00;;;;;;;;;;;30.50;29.90;;;;;;5061392;28;20269;-76
2021/03/31 12:08:26;;;;;;;;;;;30.40;30.50;;;;;;5068921;28;19908;-77
2021/03/31 12:10:51;;;;;;;;;;;30.00;28.70;;;;;;5070685;28;20289;-76
2021/03/31 12:13:17;;;;;;;;;;;29.60;29.70;;;;;;5071089;28;19931;-77
2021/03/31 12:15:42;;;;;;;;;;;29.40;31.60;;;;;;5070189;28;19958;-76
2021/03/31 12:18:07;;;;;;;;;;;29.10;32.40;;;;;;5070904;28;19909;-76
2021/03/31 12:20:33;;;;;;;;;;;28.50;31.50;;;;;;5070773;28;19974;-76
2021/03/31 12:22:59;;;;;;;;;;;28.00;33.90;;;;;;5070751;28;19909;-76
2021/03/31 12:25:24;;;;;;;;;;;27.70;36.10;;;;;;5070341;28;20031;-76
2021/03/31 12:27:51;;;;;;;;;;;27.60;34.10;;;;;;5070161;28;19913;-76
2021/03/31 12:30:17;;;;;;;;;;;27.30;35.00;;;;;;5064268;28;19915;-76
2021/03/31 12:32:42;;;;;;;;;;;27.10;34.20;;;;;;5070307;28;19913;-76
2021/03/31 12:35:08;;;;;;;;;;;26.60;34.50;;;;;;5064928;28;20001;-76
2021/03/31 12:37:34;;;;;;;;;;;26.30;35.70;;;;;;5068272;28;19921;-76
2021/03/31 12:40:00;;;;;;;;;;;26.10;36.70;;;;;;5070130;28;19908;-76
2021/03/31 12:42:25;;;;;;;;;;;26.00;35.30;;;;;;5070520;28;20399;-76
2021/03/31 12:44:51;;;;;;;;;;;25.90;38.00;;;;;;5070556;28;19908;-76
2021/03/31 12:47:22;;;;;;;;;;;25.80;35.70;;;;;;5069387;28;19908;-76
2021/03/31 12:49:49;;;;;;;;;;;25.70;36.70;;;;;;5068468;28;19998;-76
2021/03/31 12:52:15;;;;;;;;;;;25.50;33.20;;;;;;5070429;28;19936;-76
2021/03/31 12:57:26;;;;;;;;;;;25.10;35.50;;;;;;5069871;28;19967;-76
2021/03/31 12:59:51;;;;;;;;;;;24.90;34.00;;;;;;5069220;28;19913;-76
2021/03/31 13:02:17;;;;;;;;;;;24.80;33.40;;;;;;5070457;28;19913;-76
2021/03/31 13:04:42;;;;;;;;;;;24.80;38.80;;;;;;5068211;28;19912;-76
2021/03/31 13:07:08;;;;;;;;;;;24.80;35.40;;;;;;5064708;28;20327;-76
2021/03/31 13:09:34;;;;;;;;;;;24.80;36.50;;;;;;5070138;28;19909;-76
2021/03/31 13:12:01;;;;;;;;;;;24.70;38.50;;;;;;5069644;28;19912;-77
2021/03/31 13:14:47;;;;;;;;;;;24.60;39.80;;;;;;5073052;28;19909;-76
2021/03/31 13:17:38;;;;;;;;;;;24.40;37.50;;;;;;5072781;28;19963;-76
2021/03/31 13:28:16;;;;;;;;;;;24.10;38.40;;;;;;5073076;28;20006;-76
2021/03/31 13:30:36;;;;;;;;;;;24.00;37.50;;;;;;5073726;28;19908;-76
2021/03/31 13:38:17;;;;;;;;;;;23.80;40.90;;;;;;5069548;28;20143;-76
2021/03/31 13:40:42;;;;;;;;;;;23.70;38.70;;;;;;5065374;28;19931;-76
2021/03/31 13:43:08;;;;;;;;;;;23.80;38.90;;;;;;5071797;28;20038;-76
2021/03/31 13:45:34;;;;;;;;;;;23.90;40.60;;;;;;5073150;28;19909;-76
2021/03/31 13:48:07;;;;;;;;;;;23.90;40.30;;;;;;5073031;28;19915;-76
2021/03/31 13:50:34;;;;;;;;;;;23.90;39.80;;;;;;5069435;28;20294;-76
2021/03/31 13:53:01;;;;;;;;;;;24.00;41.10;;;;;;5052199;28;19924;-76
2021/03/31 13:55:28;;;;;;;;;;;23.90;41.30;;;;;;5063656;28;19909;-75
2021/03/31 13:57:53;;;;;;;;;;;23.90;41.70;;;;;;5072045;28;19956;-76
2021/03/31 14:00:23;;;;;;;;;;;23.90;42.80;;;;;;5073230;28;19955;-76
2021/03/31 14:02:48;;;;;;;;;;;23.90;41.00;;;;;;5070547;28;19912;-76
2021/03/31 14:05:14;;;;;;;;;;;23.90;40.40;;;;;;5059329;28;19936;-76
2021/03/31 14:07:40;;;;;;;;;;;23.90;40.80;;;;;;5066358;28;19913;-76
2021/03/31 14:10:06;;;;;;;;;;;23.90;40.70;;;;;;5072877;28;19927;-76
2021/03/31 14:12:32;;;;;;;;;;;23.90;39.70;;;;;;5072851;28;19908;-76
2021/03/31 14:14:58;;;;;;;;;;;23.90;41.70;;;;;;5072729;28;19909;-76
2021/03/31 14:17:24;;;;;;;;;;;24.00;42.80;;;;;;5071685;28;20364;-76
2021/03/31 14:20:05;;;;;;;;;;;23.90;42.60;;;;;;5072519;28;20284;-76
2021/03/31 14:22:30;;;;;;;;;;;24.00;42.20;;;;;;5073671;28;19947;-76
2021/03/31 14:24:59;;;;;;;;;;;23.90;43.30;;;;;;5073212;28;19947;-76
2021/03/31 14:27:24;;;;;;;;;;;24.00;44.80;;;;;;5072340;28;20443;-76
2021/03/31 14:29:50;;;;;;;;;;;24.00;43.30;;;;;;5073536;28;19909;-76
2021/03/31 14:32:17;;;;;;;;;;;24.00;43.00;;;;;;5073284;28;19909;-76
2021/03/31 14:34:42;;;;;;;;;;;24.00;41.90;;;;;;5071477;28;19916;-76
2021/03/31 14:37:08;;;;;;;;;;;24.00;42.30;;;;;;5076385;28;19994;-76
2021/03/31 14:39:34;;;;;;;;;;;24.00;43.10;;;;;;5073020;28;20318;-76
2021/03/31 14:42:00;;;;;;;;;;;24.00;42.60;;;;;;5072746;28;19912;-76
2021/03/31 14:44:25;;;;;;;;;;;24.30;42.40;;;;;;5073252;28;19931;-76
2021/03/31 14:46:51;;;;;;;;;;;24.90;41.10;;;;;;5071865;28;19912;-76
2021/03/31 14:49:17;;;;;;;;;;;25.90;40.00;;;;;;5072868;28;20392;-76
2021/03/31 14:59:39;;;;;;;;;;;28.40;35.30;;;;;;5072611;28;19912;-76
2021/03/31 15:02:05;;;;;;;;;;;28.90;35.70;;;;;;5072766;28;20297;-76
2021/03/31 15:04:31;;;;;;;;;;;29.10;37.00;;;;;;5072498;28;19915;-76
2021/03/31 15:06:56;;;;;;;;;;;29.40;37.40;;;;;;5073045;28;19914;-76